createdAt,value
2022-08-21T00:00:44.319Z,95630
2022-08-21T00:01:52.028Z,95631
2022-08-21T00:03:00.646Z,95632
2022-08-21T00:04:10.320Z,95630
2022-08-21T00:05:20.028Z,95628
2022-08-21T00:06:28.692Z,95630
2022-08-21T00:07:38.370Z,95630
2022-08-21T00:08:46.038Z,95638
2022-08-21T00:09:54.697Z,95634
2022-08-21T00:11:04.396Z,95635
2022-08-21T00:12:13.063Z,95625
2022-08-21T00:13:22.730Z,95631
2022-08-21T00:14:32.078Z,95632
2022-08-21T00:15:39.084Z,95627
2022-08-21T00:16:48.874Z,95628
2022-08-21T00:17:59.539Z,95629
2022-08-21T00:19:08.233Z,95630
2022-08-21T00:20:17.939Z,95630
2022-08-21T00:21:26.602Z,95630
2022-08-21T00:22:36.321Z,95629
2022-08-21T00:23:44.001Z,95629
2022-08-21T00:24:52.662Z,95629
2022-08-21T00:26:02.364Z,95631
2022-08-21T00:27:11.030Z,95630
2022-08-21T00:28:20.722Z,95628
2022-08-21T00:29:28.416Z,95631
2022-08-21T00:30:37.076Z,95632
2022-08-21T00:31:46.748Z,95632
2022-08-21T00:32:56.524Z,95632
2022-08-21T00:34:06.120Z,95635
2022-08-21T00:35:13.797Z,95629
2022-08-21T00:36:22.463Z,95631
2022-08-21T00:37:32.137Z,95628
2022-08-21T00:38:40.784Z,95629
2022-08-21T00:39:50.565Z,95631
2022-08-21T00:41:00.190Z,95625
2022-08-21T00:42:10.812Z,95627
2022-08-21T00:43:20.486Z,95627
2022-08-21T00:44:28.169Z,95628
2022-08-21T00:45:35.858Z,95622
2022-08-21T00:46:45.555Z,95625
2022-08-21T00:47:53.213Z,95627
2022-08-21T00:49:01.885Z,95631
2022-08-21T00:50:10.563Z,95626
2022-08-21T00:51:20.237Z,95622
2022-08-21T00:52:29.919Z,95628
2022-08-21T00:53:36.576Z,95626
2022-08-21T00:54:46.507Z,95624
2022-08-21T00:55:54.924Z,95619
2022-08-21T00:57:03.649Z,95622
2022-08-21T00:58:12.319Z,95623
2022-08-21T00:59:22.004Z,95617
2022-08-21T01:00:31.710Z,95618
2022-08-21T01:01:41.398Z,95622
2022-08-21T01:02:49.081Z,95616
2022-08-21T01:03:57.745Z,95619
2022-08-21T01:05:07.440Z,95612
2022-08-21T01:06:17.092Z,95615
2022-08-21T01:07:27.600Z,95614
2022-08-21T01:08:35.450Z,95611
2022-08-21T01:09:45.119Z,95609
2022-08-21T01:10:55.012Z,95610
2022-08-21T01:12:03.500Z,95604
2022-08-21T01:13:12.171Z,95607
2022-08-21T01:14:22.861Z,95606
2022-08-21T01:15:31.515Z,95605
2022-08-21T01:16:41.187Z,95608
2022-08-21T01:17:49.863Z,95604
2022-08-21T01:18:58.507Z,95606
2022-08-21T01:20:08.330Z,95607
2022-08-21T01:21:17.006Z,95603
2022-08-21T01:22:27.658Z,95604
2022-08-21T01:23:37.327Z,95607
2022-08-21T01:24:46.998Z,95608
2022-08-21T01:25:55.676Z,95608
2022-08-21T01:27:05.365Z,95604
2022-08-21T01:28:14.088Z,95607
2022-08-21T01:29:23.780Z,95602
2022-08-21T01:30:33.426Z,95600
2022-08-21T01:31:42.107Z,95600
2022-08-21T01:32:51.790Z,95601
2022-08-21T01:34:00.451Z,95599
2022-08-21T01:35:09.104Z,95596
2022-08-21T01:36:17.782Z,95596
2022-08-21T01:37:26.458Z,95593
2022-08-21T01:38:36.132Z,95600
2022-08-21T01:39:43.931Z,95602
2022-08-21T01:40:53.585Z,95603
2022-08-21T01:42:03.263Z,95600
2022-08-21T01:43:11.988Z,95608
2022-08-21T01:44:22.635Z,95606
2022-08-21T01:45:32.339Z,95608
2022-08-21T01:46:40.996Z,95604
2022-08-21T01:47:50.661Z,95605
2022-08-21T01:48:58.353Z,95602
2022-08-21T01:50:07.010Z,95603
2022-08-21T01:51:16.674Z,95602
2022-08-21T01:52:24.335Z,95600
2022-08-21T01:53:34.007Z,95595
2022-08-21T01:54:42.705Z,95598
2022-08-21T01:55:52.458Z,95593
2022-08-21T01:57:01.128Z,95588
2022-08-21T01:58:10.798Z,95592
2022-08-21T01:59:19.492Z,95591
2022-08-21T02:00:29.191Z,95592
2022-08-21T02:01:35.866Z,95591
2022-08-21T02:02:44.543Z,95589
2022-08-21T02:03:54.222Z,95589
2022-08-21T02:05:02.864Z,95582
2022-08-21T02:06:10.554Z,95586
2022-08-21T02:07:18.234Z,95584
2022-08-21T02:08:27.888Z,95586
2022-08-21T02:09:37.572Z,95583
2022-08-21T02:10:48.877Z,95584
2022-08-21T02:11:54.918Z,95585
2022-08-21T02:13:03.592Z,95584
2022-08-21T02:14:13.234Z,95579
2022-08-21T02:15:23.880Z,95584
2022-08-21T02:16:31.558Z,95583
2022-08-21T02:17:40.225Z,95579
2022-08-21T02:18:49.888Z,95577
2022-08-21T02:19:57.539Z,95577
2022-08-21T02:21:06.211Z,95582
2022-08-21T02:22:14.860Z,95578
2022-08-21T02:23:26.512Z,95581
2022-08-21T02:24:32.308Z,95584
2022-08-21T02:25:41.955Z,95577
2022-08-21T02:26:51.652Z,95582
2022-08-21T02:27:59.342Z,95576
2022-08-21T02:29:08.033Z,95578
2022-08-21T02:30:16.690Z,95583
2022-08-21T02:31:24.348Z,95582
2022-08-21T02:32:33.022Z,95580
2022-08-21T02:33:41.684Z,95581
2022-08-21T02:34:50.358Z,95580
2022-08-21T02:36:00.105Z,95581
2022-08-21T02:37:07.781Z,95580
2022-08-21T02:38:16.442Z,95581
2022-08-21T02:39:27.006Z,95580
2022-08-21T02:40:33.823Z,95577
2022-08-21T02:41:43.468Z,95576
2022-08-21T02:42:52.212Z,95576
2022-08-21T02:44:00.823Z,95575
2022-08-21T02:45:10.563Z,95575
2022-08-21T02:46:18.282Z,95573
2022-08-21T02:47:27.939Z,95576
2022-08-21T02:48:37.679Z,95575
2022-08-21T02:49:46.383Z,95576
2022-08-21T02:50:54.045Z,95577
2022-08-21T02:52:02.743Z,95575
2022-08-21T02:53:11.438Z,95579
2022-08-21T02:54:21.096Z,95571
2022-08-21T02:55:29.782Z,95574
2022-08-21T02:56:39.441Z,95574
2022-08-21T02:57:49.132Z,95570
2022-08-21T02:58:56.821Z,95567
2022-08-21T03:00:05.496Z,95575
2022-08-21T03:01:14.219Z,95574
2022-08-21T03:02:22.934Z,95574
2022-08-21T03:03:32.529Z,95572
2022-08-21T03:04:44.612Z,95572
2022-08-21T03:05:49.824Z,95573
2022-08-21T03:06:59.488Z,95573
2022-08-21T03:08:08.146Z,95574
2022-08-21T03:09:16.840Z,95577
2022-08-21T03:10:26.501Z,95575
2022-08-21T03:11:36.179Z,95574
2022-08-21T03:12:45.853Z,95572
2022-08-21T03:13:53.514Z,95578
2022-08-21T03:15:02.168Z,95579
2022-08-21T03:16:11.856Z,95582
2022-08-21T03:17:19.517Z,95577
2022-08-21T03:18:29.163Z,95577
2022-08-21T03:19:38.819Z,95579
2022-08-21T03:20:47.477Z,95580
2022-08-21T03:21:57.134Z,95579
2022-08-21T03:23:06.202Z,95580
2022-08-21T03:24:14.434Z,95577
2022-08-21T03:25:25.100Z,95576
2022-08-21T03:26:34.854Z,95575
2022-08-21T03:27:44.516Z,95574
2022-08-21T03:28:54.185Z,95575
2022-08-21T03:30:02.859Z,95569
2022-08-21T03:31:12.524Z,95570
2022-08-21T03:32:21.206Z,95566
2022-08-21T03:33:30.880Z,95570
2022-08-21T03:34:39.535Z,95570
2022-08-21T03:35:49.220Z,95569
2022-08-21T03:36:57.883Z,95569
2022-08-21T03:38:06.585Z,95569
2022-08-21T03:39:15.230Z,95568
2022-08-21T03:40:24.922Z,95571
2022-08-21T03:41:33.592Z,95575
2022-08-21T03:42:42.284Z,95581
2022-08-21T03:43:52.073Z,95583
2022-08-21T03:44:59.742Z,95577
2022-08-21T03:46:09.423Z,95583
2022-08-21T03:47:19.079Z,95580
2022-08-21T03:48:28.746Z,95583
2022-08-21T03:49:38.436Z,95587
2022-08-21T03:50:46.086Z,95590
2022-08-21T03:51:59.202Z,95586
2022-08-21T03:53:05.407Z,95583
2022-08-21T03:54:16.070Z,95586
2022-08-21T03:55:25.747Z,95591
2022-08-21T03:56:34.421Z,95590
2022-08-21T03:57:43.070Z,95591
2022-08-21T03:58:52.747Z,95595
2022-08-21T04:00:00.413Z,95592
2022-08-21T04:01:10.099Z,95591
2022-08-21T04:02:19.779Z,95589
2022-08-21T04:03:28.426Z,95591
2022-08-21T04:04:38.092Z,95591
2022-08-21T04:05:46.827Z,95589
2022-08-21T04:06:56.513Z,95583
2022-08-21T04:08:06.175Z,95593
2022-08-21T04:09:14.851Z,95590
2022-08-21T04:10:23.509Z,95592
2022-08-21T04:11:33.175Z,95589
2022-08-21T04:12:40.854Z,95593
2022-08-21T04:13:50.509Z,95591
2022-08-21T04:14:59.178Z,95591
2022-08-21T04:16:07.826Z,95591
2022-08-21T04:17:17.509Z,95596
2022-08-21T04:18:24.177Z,95594
2022-08-21T04:19:32.855Z,95595
2022-08-21T04:20:42.528Z,95592
2022-08-21T04:21:53.190Z,95593
2022-08-21T04:23:00.847Z,95595
2022-08-21T04:24:09.520Z,95592
2022-08-21T04:25:19.195Z,95595
2022-08-21T04:26:28.864Z,95597
2022-08-21T04:27:37.516Z,95598
2022-08-21T04:28:47.178Z,95599
2022-08-21T04:29:54.956Z,95597
2022-08-21T04:31:03.597Z,95605
2022-08-21T04:32:13.279Z,95608
2022-08-21T04:33:21.970Z,95611
2022-08-21T04:34:30.643Z,95615
2022-08-21T04:35:39.332Z,95610
2022-08-21T04:36:49.024Z,95611
2022-08-21T04:37:58.701Z,95617
2022-08-21T04:39:06.434Z,95622
2022-08-21T04:40:16.122Z,95620
2022-08-21T04:41:28.178Z,95623
2022-08-21T04:42:35.493Z,95624
2022-08-21T04:43:44.215Z,95623
2022-08-21T04:44:52.936Z,95630
2022-08-21T04:46:01.600Z,95630
2022-08-21T04:47:12.388Z,95628
2022-08-21T04:48:20.097Z,95631
2022-08-21T04:49:28.692Z,95630
2022-08-21T04:50:38.372Z,95628
2022-08-21T04:51:46.046Z,95628
2022-08-21T04:52:54.793Z,95629
2022-08-21T04:54:03.417Z,95628
2022-08-21T04:55:12.094Z,95625
2022-08-21T04:56:20.747Z,95625
2022-08-21T04:57:34.161Z,95624
2022-08-21T04:58:39.089Z,95622
2022-08-21T04:59:48.749Z,95625
2022-08-21T05:00:56.411Z,95627
2022-08-21T05:02:05.074Z,95618
2022-08-21T05:03:13.726Z,95626
2022-08-21T05:04:22.416Z,95622
2022-08-21T05:05:32.089Z,95620
2022-08-21T05:06:39.745Z,95621
2022-08-21T05:07:48.436Z,95621
2022-08-21T05:09:01.551Z,95625
2022-08-21T05:10:06.816Z,95624
2022-08-21T05:11:15.487Z,95623
2022-08-21T05:12:25.167Z,95621
2022-08-21T05:13:32.835Z,95623
2022-08-21T05:14:42.514Z,95616
2022-08-21T05:15:51.214Z,95618
2022-08-21T05:17:00.892Z,95618
2022-08-21T05:18:10.567Z,95622
2022-08-21T05:19:19.238Z,95621
2022-08-21T05:20:27.915Z,95621
2022-08-21T05:21:36.615Z,95623
2022-08-21T05:22:45.280Z,95622
2022-08-21T05:23:54.968Z,95624
2022-08-21T05:25:06.553Z,95627
2022-08-21T05:26:18.069Z,95628
2022-08-21T05:27:23.985Z,95624
2022-08-21T05:28:34.642Z,95628
2022-08-21T05:29:44.294Z,95624
2022-08-21T05:30:53.958Z,95625
2022-08-21T05:32:02.630Z,95634
2022-08-21T05:33:12.441Z,95633
2022-08-21T05:34:20.143Z,95633
2022-08-21T05:35:29.756Z,95633
2022-08-21T05:36:39.425Z,95630
2022-08-21T05:37:47.085Z,95641
2022-08-21T05:38:55.772Z,95635
2022-08-21T05:40:22.102Z,95636
2022-08-21T05:41:15.059Z,95636
2022-08-21T05:42:24.744Z,95640
2022-08-21T05:43:32.413Z,95641
2022-08-21T05:44:42.096Z,95638
2022-08-21T05:45:51.753Z,95638
2022-08-21T05:46:59.412Z,95641
2022-08-21T05:48:09.088Z,95644
2022-08-21T05:49:17.765Z,95646
2022-08-21T05:50:29.402Z,95641
2022-08-21T05:51:37.216Z,95646
2022-08-21T05:52:45.893Z,95641
2022-08-21T05:53:55.587Z,95642
2022-08-21T05:55:05.246Z,95644
2022-08-21T05:56:12.933Z,95646
2022-08-21T05:57:21.585Z,95648
2022-08-21T05:58:30.274Z,95645
2022-08-21T05:59:38.978Z,95645
2022-08-21T06:00:48.893Z,95652
2022-08-21T06:01:56.408Z,95651
2022-08-21T06:03:04.992Z,95652
2022-08-21T06:04:14.661Z,95649
2022-08-21T06:05:35.869Z,95650
2022-08-21T06:06:32.945Z,95652
2022-08-21T06:07:41.629Z,95649
2022-08-21T06:08:50.285Z,95650
2022-08-21T06:09:59.957Z,95647
2022-08-21T06:11:07.609Z,95649
2022-08-21T06:12:16.266Z,95651
2022-08-21T06:13:25.957Z,95654
2022-08-21T06:14:33.614Z,95653
2022-08-21T06:15:43.383Z,95654
2022-08-21T06:16:53.063Z,95652
2022-08-21T06:18:02.737Z,95650
2022-08-21T06:19:12.479Z,95649
2022-08-21T06:20:20.194Z,95647
2022-08-21T06:21:28.851Z,95649
2022-08-21T06:22:36.510Z,95649
2022-08-21T06:23:45.205Z,95647
2022-08-21T06:24:54.887Z,95647
2022-08-21T06:26:03.574Z,95649
2022-08-21T06:27:12.280Z,95652
2022-08-21T06:28:20.951Z,95656
2022-08-21T06:29:29.617Z,95655
2022-08-21T06:30:40.300Z,95654
2022-08-21T06:31:47.952Z,95655
2022-08-21T06:32:57.741Z,95652
2022-08-21T06:34:07.285Z,95657
2022-08-21T06:35:14.959Z,95656
2022-08-21T06:36:23.655Z,95656
2022-08-21T06:37:33.320Z,95651
2022-08-21T06:38:49.173Z,95652
2022-08-21T06:39:53.640Z,95656
2022-08-21T06:41:02.269Z,95646
2022-08-21T06:42:12.953Z,95649
2022-08-21T06:43:22.639Z,95649
2022-08-21T06:44:33.279Z,95650
2022-08-21T06:45:42.957Z,95653
2022-08-21T06:46:51.615Z,95649
2022-08-21T06:48:00.301Z,95648
2022-08-21T06:49:09.972Z,95652
2022-08-21T06:50:20.622Z,95650
2022-08-21T06:51:30.298Z,95650
2022-08-21T06:52:39.962Z,95643
2022-08-21T06:53:47.652Z,95643
2022-08-21T06:54:56.350Z,95640
2022-08-21T06:56:06.012Z,95638
2022-08-21T06:57:14.672Z,95639
2022-08-21T06:58:23.443Z,95639
2022-08-21T06:59:32.066Z,95639
2022-08-21T07:00:40.750Z,95640
2022-08-21T07:01:50.496Z,95639
2022-08-21T07:02:59.304Z,95642
2022-08-21T07:04:07.778Z,95635
2022-08-21T07:05:17.705Z,95639
2022-08-21T07:06:26.138Z,95638
2022-08-21T07:07:36.816Z,95641
2022-08-21T07:08:45.468Z,95635
2022-08-21T07:09:54.129Z,95636
2022-08-21T07:11:03.834Z,95640
2022-08-21T07:12:11.491Z,95635
2022-08-21T07:13:20.183Z,95637
2022-08-21T07:14:29.850Z,95633
2022-08-21T07:15:38.530Z,95632
2022-08-21T07:16:48.275Z,95636
2022-08-21T07:17:56.972Z,95628
2022-08-21T07:19:06.639Z,95634
2022-08-21T07:20:16.315Z,95629
2022-08-21T07:21:26.083Z,95634
2022-08-21T07:22:33.636Z,95624
2022-08-21T07:23:42.315Z,95626
2022-08-21T07:24:50.958Z,95628
2022-08-21T07:26:00.629Z,95624
2022-08-21T07:27:10.003Z,95629
2022-08-21T07:28:16.984Z,95632
2022-08-21T07:29:26.674Z,95630
2022-08-21T07:30:34.347Z,95630
2022-08-21T07:31:43.000Z,95631
2022-08-21T07:32:53.665Z,95635
2022-08-21T07:34:03.342Z,95633
2022-08-21T07:35:13.020Z,95639
2022-08-21T07:36:20.679Z,95643
2022-08-21T07:37:29.346Z,95638
2022-08-21T07:38:39.011Z,95638
2022-08-21T07:39:47.749Z,95637
2022-08-21T07:40:56.394Z,95640
2022-08-21T07:42:08.472Z,95637
2022-08-21T07:43:15.722Z,95637
2022-08-21T07:44:25.387Z,95639
2022-08-21T07:45:33.069Z,95632
2022-08-21T07:46:41.723Z,95631
2022-08-21T07:47:55.384Z,95630
2022-08-21T07:49:01.021Z,95629
2022-08-21T07:50:09.689Z,95634
2022-08-21T07:51:19.389Z,95631
2022-08-21T07:52:28.039Z,95632
2022-08-21T07:53:37.701Z,95635
2022-08-21T07:54:45.381Z,95629
2022-08-21T07:55:54.038Z,95633
2022-08-21T07:57:03.746Z,95629
2022-08-21T07:58:12.407Z,95634
2022-08-21T07:59:21.064Z,95627
2022-08-21T08:00:29.753Z,95631
2022-08-21T08:01:39.471Z,95628
2022-08-21T08:02:49.202Z,95624
2022-08-21T08:03:58.875Z,95625
2022-08-21T08:05:08.601Z,95624
2022-08-21T08:06:18.256Z,95624
2022-08-21T08:07:27.928Z,95625
2022-08-21T08:08:36.597Z,95624
2022-08-21T08:09:45.260Z,95623
2022-08-21T08:10:53.922Z,95620
2022-08-21T08:12:03.576Z,95620
2022-08-21T08:13:12.235Z,95620
2022-08-21T08:14:28.993Z,95615
2022-08-21T08:15:37.026Z,95621
2022-08-21T08:16:42.184Z,95624
2022-08-21T08:17:50.846Z,95620
2022-08-21T08:19:01.496Z,95616
2022-08-21T08:20:10.173Z,95616
2022-08-21T08:21:19.844Z,95615
2022-08-21T08:22:28.498Z,95620
2022-08-21T08:23:38.173Z,95621
2022-08-21T08:24:45.832Z,95622
2022-08-21T08:25:55.512Z,95619
2022-08-21T08:27:05.190Z,95617
2022-08-21T08:28:16.451Z,95619
2022-08-21T08:29:22.524Z,95620
2022-08-21T08:30:33.137Z,95619
2022-08-21T08:31:41.896Z,95618
2022-08-21T08:32:51.636Z,95617
2022-08-21T08:34:00.235Z,95616
2022-08-21T08:35:09.888Z,95617
2022-08-21T08:36:19.752Z,95616
2022-08-21T08:37:32.601Z,95616
2022-08-21T08:38:36.948Z,95613
2022-08-21T08:39:46.605Z,95614
2022-08-21T08:40:56.203Z,95617
2022-08-21T08:42:27.274Z,95615
2022-08-21T08:43:16.820Z,95621
2022-08-21T08:44:25.271Z,95618
2022-08-21T08:45:34.923Z,95618
2022-08-21T08:46:42.586Z,95616
2022-08-21T08:47:52.288Z,95611
2022-08-21T08:49:00.963Z,95615
2022-08-21T08:50:10.609Z,95609
2022-08-21T08:51:20.287Z,95615
2022-08-21T08:52:28.997Z,95611
2022-08-21T08:53:37.663Z,95613
2022-08-21T08:54:47.352Z,95615
2022-08-21T08:55:56.024Z,95616
2022-08-21T08:57:05.688Z,95618
2022-08-21T08:58:14.403Z,95615
2022-08-21T08:59:23.084Z,95615
2022-08-21T09:00:33.842Z,95613
2022-08-21T09:01:43.597Z,95611
2022-08-21T09:02:53.208Z,95614
2022-08-21T09:04:02.906Z,95609
2022-08-21T09:05:10.525Z,95608
2022-08-21T09:06:20.273Z,95612
2022-08-21T09:07:28.942Z,95614
2022-08-21T09:08:38.639Z,95615
2022-08-21T09:09:48.306Z,95614
2022-08-21T09:10:55.990Z,95613
2022-08-21T09:12:05.687Z,95613
2022-08-21T09:13:15.388Z,95615
2022-08-21T09:14:24.066Z,95616
2022-08-21T09:15:32.715Z,95615
2022-08-21T09:16:42.381Z,95612
2022-08-21T09:17:52.050Z,95611
2022-08-21T09:19:01.744Z,95608
2022-08-21T09:20:09.409Z,95609
2022-08-21T09:21:18.094Z,95607
2022-08-21T09:22:27.781Z,95604
2022-08-21T09:23:36.496Z,95602
2022-08-21T09:24:44.198Z,95605
2022-08-21T09:25:54.854Z,95612
2022-08-21T09:27:03.515Z,95609
2022-08-21T09:28:13.183Z,95608
2022-08-21T09:29:22.879Z,95607
2022-08-21T09:30:31.546Z,95606
2022-08-21T09:31:41.238Z,95612
2022-08-21T09:32:49.943Z,95609
2022-08-21T09:33:58.625Z,95606
2022-08-21T09:35:08.342Z,95606
2022-08-21T09:36:16.995Z,95611
2022-08-21T09:37:26.682Z,95612
2022-08-21T09:38:35.368Z,95607
2022-08-21T09:39:48.652Z,95613
2022-08-21T09:40:54.814Z,95610
2022-08-21T09:42:03.522Z,95599
2022-08-21T09:43:13.216Z,95606
2022-08-21T09:44:22.912Z,95605
2022-08-21T09:45:34.119Z,95598
2022-08-21T09:46:41.372Z,95601
2022-08-21T09:47:50.020Z,95603
2022-08-21T09:48:58.688Z,95601
2022-08-21T09:50:09.343Z,95599
2022-08-21T09:51:17.002Z,95597
2022-08-21T09:52:25.692Z,95600
2022-08-21T09:53:35.979Z,95601
2022-08-21T09:54:43.055Z,95596
2022-08-21T09:55:52.776Z,95595
2022-08-21T09:57:01.417Z,95598
2022-08-21T09:58:11.139Z,95597
2022-08-21T09:59:20.820Z,95596
2022-08-21T10:00:28.494Z,95589
2022-08-21T10:01:37.154Z,95596
2022-08-21T10:02:45.821Z,95597
2022-08-21T10:03:55.647Z,95592
2022-08-21T10:05:05.350Z,95596
2022-08-21T10:06:14.047Z,95592
2022-08-21T10:07:21.723Z,95595
2022-08-21T10:08:31.388Z,95595
2022-08-21T10:09:40.053Z,95593
2022-08-21T10:10:48.736Z,95595
2022-08-21T10:11:59.380Z,95589
2022-08-21T10:13:09.038Z,95592
2022-08-21T10:14:18.721Z,95588
2022-08-21T10:15:27.408Z,95590
2022-08-21T10:16:36.118Z,95589
2022-08-21T10:17:45.821Z,95587
2022-08-21T10:18:55.507Z,95590
2022-08-21T10:20:05.188Z,95587
2022-08-21T10:21:13.881Z,95586
2022-08-21T10:22:22.537Z,95588
2022-08-21T10:23:32.212Z,95594
2022-08-21T10:24:40.897Z,95591
2022-08-21T10:25:52.072Z,95588
2022-08-21T10:27:01.262Z,95590
2022-08-21T10:28:13.676Z,95583
2022-08-21T10:29:20.698Z,95585
2022-08-21T10:30:30.353Z,95592
2022-08-21T10:31:40.077Z,95588
2022-08-21T10:32:48.781Z,95590
2022-08-21T10:33:57.751Z,95585
2022-08-21T10:35:07.420Z,95579
2022-08-21T10:36:17.075Z,95581
2022-08-21T10:37:25.730Z,95580
2022-08-21T10:38:50.750Z,95580
2022-08-21T10:39:46.134Z,95578
2022-08-21T10:40:54.756Z,95583
2022-08-21T10:42:04.490Z,95579
2022-08-21T10:43:13.144Z,95576
2022-08-21T10:44:22.943Z,95579
2022-08-21T10:45:31.610Z,95571
2022-08-21T10:46:40.283Z,95574
2022-08-21T10:47:49.963Z,95571
2022-08-21T10:49:00.628Z,95575
2022-08-21T10:50:09.431Z,95575
2022-08-21T10:51:18.070Z,95576
2022-08-21T10:52:28.719Z,95577
2022-08-21T10:53:38.380Z,95582
2022-08-21T10:54:46.040Z,95582
2022-08-21T10:55:54.722Z,95580
2022-08-21T10:57:04.423Z,95584
2022-08-21T10:58:13.081Z,95579
2022-08-21T10:59:21.786Z,95576
2022-08-21T11:00:31.451Z,95585
2022-08-21T11:01:40.149Z,95573
2022-08-21T11:02:49.823Z,95577
2022-08-21T11:03:58.475Z,95577
2022-08-21T11:05:07.100Z,95574
2022-08-21T11:06:16.781Z,95576
2022-08-21T11:07:25.440Z,95573
2022-08-21T11:08:35.080Z,95573
2022-08-21T11:09:45.731Z,95564
2022-08-21T11:10:58.188Z,95568
2022-08-21T11:12:10.838Z,95563
2022-08-21T11:13:14.670Z,95559
2022-08-21T11:14:23.327Z,95562
2022-08-21T11:15:32.987Z,95564
2022-08-21T11:16:41.660Z,95562
2022-08-21T11:17:50.314Z,95565
2022-08-21T11:18:59.032Z,95563
2022-08-21T11:20:07.682Z,95562
2022-08-21T11:21:17.371Z,95554
2022-08-21T11:22:25.075Z,95560
2022-08-21T11:23:34.745Z,95564
2022-08-21T11:24:45.441Z,95558
2022-08-21T11:25:55.099Z,95554
2022-08-21T11:27:03.793Z,95557
2022-08-21T11:28:14.526Z,95557
2022-08-21T11:29:22.121Z,95550
2022-08-21T11:30:31.835Z,95548
2022-08-21T11:31:39.493Z,95549
2022-08-21T11:32:48.392Z,95547
2022-08-21T11:33:58.051Z,95551
2022-08-21T11:35:06.729Z,95546
2022-08-21T11:36:16.407Z,95548
2022-08-21T11:37:25.064Z,95547
2022-08-21T11:38:35.765Z,95547
2022-08-21T11:39:44.519Z,95548
2022-08-21T11:40:54.213Z,95549
2022-08-21T11:42:08.400Z,95544
2022-08-21T11:43:13.643Z,95545
2022-08-21T11:44:22.356Z,95545
2022-08-21T11:45:32.080Z,95547
2022-08-21T11:46:40.841Z,95546
2022-08-21T11:47:53.287Z,95544
2022-08-21T11:49:00.237Z,95548
2022-08-21T11:50:11.007Z,95546
2022-08-21T11:51:19.632Z,95548
2022-08-21T11:52:29.344Z,95545
2022-08-21T11:53:39.097Z,95548
2022-08-21T11:54:48.812Z,95541
2022-08-21T11:55:58.526Z,95542
2022-08-21T11:57:07.214Z,95544
2022-08-21T11:58:16.900Z,95539
2022-08-21T11:59:25.634Z,95545
2022-08-21T12:00:34.274Z,95540
2022-08-21T12:01:43.987Z,95544
2022-08-21T12:02:52.648Z,95545
2022-08-21T12:04:01.308Z,95536
2022-08-21T12:05:09.990Z,95538
2022-08-21T12:06:24.365Z,95538
2022-08-21T12:07:28.296Z,95530
2022-08-21T12:08:36.965Z,95532
2022-08-21T12:09:46.615Z,95524
2022-08-21T12:10:56.321Z,95525
2022-08-21T12:12:03.979Z,95524
2022-08-21T12:13:11.628Z,95532
2022-08-21T12:14:20.324Z,95534
2022-08-21T12:15:28.968Z,95526
2022-08-21T12:16:38.641Z,95527
2022-08-21T12:17:48.311Z,95520
2022-08-21T12:18:58.100Z,95522
2022-08-21T12:20:06.755Z,95521
2022-08-21T12:21:15.406Z,95521
2022-08-21T12:22:25.080Z,95523
2022-08-21T12:23:32.734Z,95522
2022-08-21T12:24:41.389Z,95528
2022-08-21T12:25:50.042Z,95526
2022-08-21T12:26:58.716Z,95522
2022-08-21T12:28:08.417Z,95526
2022-08-21T12:29:16.124Z,95526
2022-08-21T12:30:27.387Z,95519
2022-08-21T12:31:35.391Z,95517
2022-08-21T12:32:43.058Z,95517
2022-08-21T12:33:52.739Z,95514
2022-08-21T12:35:02.503Z,95517
2022-08-21T12:36:11.091Z,95517
2022-08-21T12:37:20.791Z,95519
2022-08-21T12:38:29.459Z,95514
2022-08-21T12:39:38.225Z,95513
2022-08-21T12:40:47.835Z,95515
2022-08-21T12:42:00.089Z,95512
2022-08-21T12:43:05.396Z,95508
2022-08-21T12:44:13.857Z,95508
2022-08-21T12:45:22.552Z,95507
2022-08-21T12:46:32.226Z,95514
2022-08-21T12:47:40.917Z,95516
2022-08-21T12:48:50.563Z,95512
2022-08-21T12:50:00.233Z,95506
2022-08-21T12:51:07.935Z,95509
2022-08-21T12:52:16.634Z,95506
2022-08-21T12:53:26.308Z,95509
2022-08-21T12:54:35.982Z,95495
2022-08-21T12:55:53.282Z,95497
2022-08-21T12:57:03.121Z,95501
2022-08-21T12:58:12.800Z,95501
2022-08-21T12:59:21.464Z,95496
2022-08-21T13:00:31.190Z,95499
2022-08-21T13:01:41.801Z,95494
2022-08-21T13:02:49.511Z,95494
2022-08-21T13:04:04.016Z,95499
2022-08-21T13:05:05.819Z,95498
2022-08-21T13:06:15.484Z,95496
2022-08-21T13:07:24.136Z,95497
2022-08-21T13:08:35.435Z,95495
2022-08-21T13:09:43.529Z,95498
2022-08-21T13:10:52.172Z,95493
2022-08-21T13:12:01.856Z,95494
2022-08-21T13:13:12.501Z,95492
2022-08-21T13:14:20.196Z,95488
2022-08-21T13:15:32.020Z,95481
2022-08-21T13:16:38.522Z,95486
2022-08-21T13:17:47.189Z,95496
2022-08-21T13:18:56.857Z,95487
2022-08-21T13:20:05.529Z,95485
2022-08-21T13:21:15.194Z,95483
2022-08-21T13:22:33.621Z,95487
2022-08-21T13:23:33.486Z,95486
2022-08-21T13:24:44.212Z,95491
2022-08-21T13:25:51.797Z,95483
2022-08-21T13:26:59.446Z,95476
2022-08-21T13:28:09.110Z,95478
2022-08-21T13:29:18.783Z,95479
2022-08-21T13:30:28.403Z,95477
2022-08-21T13:31:36.056Z,95477
2022-08-21T13:32:44.734Z,95483
2022-08-21T13:33:54.412Z,95482
2022-08-21T13:35:02.090Z,95478
2022-08-21T13:36:10.782Z,95478
2022-08-21T13:37:20.483Z,95477
2022-08-21T13:38:29.151Z,95473
2022-08-21T13:39:38.833Z,95477
2022-08-21T13:40:46.555Z,95472
2022-08-21T13:41:55.211Z,95472
2022-08-21T13:43:05.875Z,95467
2022-08-21T13:44:16.131Z,95469
2022-08-21T13:45:23.173Z,95470
2022-08-21T13:46:32.837Z,95477
2022-08-21T13:47:41.481Z,95470
2022-08-21T13:48:51.167Z,95465
2022-08-21T13:49:59.402Z,95473
2022-08-21T13:51:07.519Z,95468
2022-08-21T13:52:17.195Z,95470
2022-08-21T13:53:25.892Z,95465
2022-08-21T13:54:35.600Z,95468
2022-08-21T13:55:43.393Z,95456
2022-08-21T13:56:52.039Z,95471
2022-08-21T13:58:01.714Z,95474
2022-08-21T13:59:09.422Z,95467
2022-08-21T14:00:18.206Z,95472
2022-08-21T14:01:27.927Z,95453
2022-08-21T14:02:35.559Z,95457
2022-08-21T14:03:44.290Z,95467
2022-08-21T14:04:53.970Z,95468
2022-08-21T14:06:02.651Z,95462
2022-08-21T14:07:12.347Z,95462
2022-08-21T14:08:20.006Z,95465
2022-08-21T14:09:29.696Z,95464
2022-08-21T14:10:39.327Z,95465
2022-08-21T14:11:48.014Z,95460
2022-08-21T14:12:56.710Z,95464
2022-08-21T14:14:04.427Z,95466
2022-08-21T14:15:13.155Z,95466
2022-08-21T14:16:21.838Z,95467
2022-08-21T14:17:33.666Z,95461
2022-08-21T14:18:41.427Z,95466
2022-08-21T14:19:49.124Z,95465
2022-08-21T14:20:57.783Z,95466
2022-08-21T14:22:07.436Z,95469
2022-08-21T14:23:15.123Z,95471
2022-08-21T14:24:24.860Z,95450
2022-08-21T14:25:33.549Z,95449
2022-08-21T14:26:44.237Z,95454
2022-08-21T14:27:53.939Z,95460
2022-08-21T14:29:02.646Z,95457
2022-08-21T14:30:11.303Z,95476
2022-08-21T14:31:20.981Z,95459
2022-08-21T14:32:28.663Z,95470
2022-08-21T14:33:37.315Z,95471
2022-08-21T14:34:46.011Z,95461
2022-08-21T14:35:54.659Z,95470
2022-08-21T14:37:04.345Z,95470
2022-08-21T14:38:11.990Z,95478
2022-08-21T14:39:20.638Z,95470
2022-08-21T14:40:30.403Z,95475
2022-08-21T14:41:38.021Z,95473
2022-08-21T14:42:47.696Z,95473
2022-08-21T14:44:04.355Z,95465
2022-08-21T14:45:07.088Z,95460
2022-08-21T14:46:16.788Z,95457
2022-08-21T14:47:24.520Z,95459
2022-08-21T14:48:32.174Z,95455
2022-08-21T14:49:42.898Z,95453